Time;durP1;ratioP1;P1;durP2;ratioP2;P2;SDS_P1;SDS_P2;PMS_P1;PMS_P2;Temp;Humidity;BMP_temperature;BMP_pressure;BME280_temperature;BME280_humidity;BME280_pressure;Samples;Min_cycle;Max_cycle;Signal;HPM_P1;HPM_P2
2024/02/14 00:02:07;;;;;;;10.63;6.97;;;;;;;;;;6229384;23;20245;-79
2024/02/14 00:04:39;;;;;;;8.10;6.50;;;;;;;;;;6246603;22;20169;-80
2024/02/14 00:07:05;;;;;;;11.37;6.73;;;;;;;;;;6246449;22;20192;-80
2024/02/14 00:09:37;;;;;;;11.07;6.27;;;;;;;;;;6246639;22;20164;-79
2024/02/14 00:12:04;;;;;;;10.67;6.37;;;;;;;;;;6246644;22;20165;-80
2024/02/14 00:14:34;;;;;;;9.80;6.33;;;;;;;;;;6246395;22;20165;-79
2024/02/14 00:17:05;;;;;;;9.63;6.50;;;;;;;;;;6246482;22;20146;-80
2024/02/14 00:19:36;;;;;;;10.87;6.57;;;;;;;;;;6246402;23;20603;-79
2024/02/14 00:22:05;;;;;;;9.00;6.80;;;;;;;;;;6246611;22;20157;-79
2024/02/14 00:24:32;;;;;;;8.57;6.50;;;;;;;;;;6246311;22;20169;-79
2024/02/14 00:27:03;;;;;;;9.57;6.23;;;;;;;;;;6246390;22;20655;-80
2024/02/14 00:29:30;;;;;;;10.20;6.77;;;;;;;;;;6244300;23;20169;-79
2024/02/14 00:31:56;;;;;;;9.03;6.20;;;;;;;;;;6246116;23;20161;-79
2024/02/14 00:34:34;;;;;;;10.90;7.03;;;;;;;;;;6246352;22;20149;-80
2024/02/14 00:37:01;;;;;;;10.77;7.20;;;;;;;;;;6246299;23;20157;-79
2024/02/14 00:39:29;;;;;;;8.97;6.17;;;;;;;;;;6246189;22;20188;-79
2024/02/14 00:41:56;;;;;;;10.03;5.67;;;;;;;;;;6246262;22;20223;-79
2024/02/14 00:44:25;;;;;;;10.07;5.50;;;;;;;;;;6246026;23;20185;-79
2024/02/14 00:47:05;;;;;;;9.43;6.10;;;;;;;;;;6246168;22;20149;-80
2024/02/14 00:49:35;;;;;;;7.50;5.47;;;;;;;;;;6246345;22;20211;-79
2024/02/14 00:52:02;;;;;;;9.60;5.90;;;;;;;;;;6246217;22;20168;-79
2024/02/14 00:54:30;;;;;;;8.63;5.50;;;;;;;;;;6246025;22;20157;-79
2024/02/14 00:57:02;;;;;;;8.80;5.50;;;;;;;;;;6246378;22;20164;-79
2024/02/14 00:59:29;;;;;;;7.60;5.33;;;;;;;;;;6246054;22;20161;-79
2024/02/14 01:01:56;;;;;;;9.33;5.00;;;;;;;;;;6246132;22;20636;-79
2024/02/14 01:04:25;;;;;;;6.87;4.73;;;;;;;;;;6246305;22;20223;-79
2024/02/14 01:06:54;;;;;;;7.97;5.37;;;;;;;;;;6245887;22;20200;-80
2024/02/14 01:09:23;;;;;;;23.20;10.97;;;;;;;;;;6245872;23;20145;-79
2024/02/14 01:11:54;;;;;;;39.23;17.20;;;;;;;;;;6245916;23;20151;-79
2024/02/14 01:14:22;;;;;;;33.80;15.47;;;;;;;;;;6245909;23;20157;-79
2024/02/14 01:16:52;;;;;;;27.83;13.90;;;;;;;;;;6245781;23;20151;-79
2024/02/14 01:19:23;;;;;;;21.80;10.77;;;;;;;;;;6245944;23;20157;-79
2024/02/14 01:21:53;;;;;;;19.97;10.40;;;;;;;;;;6245877;23;20163;-80
2024/02/14 01:24:22;;;;;;;21.63;10.23;;;;;;;;;;6245913;23;20179;-79
2024/02/14 01:26:50;;;;;;;15.93;9.30;;;;;;;;;;6245869;23;20207;-79
2024/02/14 01:29:21;;;;;;;13.97;8.17;;;;;;;;;;6219160;23;20568;-79
2024/02/14 01:31:48;;;;;;;10.90;6.67;;;;;;;;;;6245722;23;20165;-80
2024/02/14 01:34:15;;;;;;;11.60;5.73;;;;;;;;;;6245888;23;20161;-79
2024/02/14 01:36:42;;;;;;;7.20;4.50;;;;;;;;;;6245893;23;20165;-79
2024/02/14 01:39:11;;;;;;;6.60;4.50;;;;;;;;;;6246233;23;20159;-79
2024/02/14 01:41:45;;;;;;;6.20;4.10;;;;;;;;;;6220554;23;20165;-79
2024/02/14 01:44:17;;;;;;;5.20;3.97;;;;;;;;;;6247902;23;20191;-79
2024/02/14 01:46:44;;;;;;;6.07;4.30;;;;;;;;;;6247388;23;20184;-79
2024/02/14 01:49:14;;;;;;;5.73;4.30;;;;;;;;;;6220823;23;20173;-80
2024/02/14 01:51:44;;;;;;;4.60;4.03;;;;;;;;;;6220981;23;20189;-79
2024/02/14 01:54:15;;;;;;;6.83;4.37;;;;;;;;;;6247924;23;20153;-79
2024/02/14 01:56:45;;;;;;;5.53;3.80;;;;;;;;;;6247745;23;20155;-79
2024/02/14 01:59:18;;;;;;;5.03;4.07;;;;;;;;;;6247703;23;20212;-79
2024/02/14 02:01:47;;;;;;;4.87;3.97;;;;;;;;;;6220828;23;20234;-79
2024/02/14 02:04:21;;;;;;;5.13;4.10;;;;;;;;;;6247704;23;20239;-79
2024/02/14 02:06:48;;;;;;;5.30;4.03;;;;;;;;;;6247389;23;20267;-80
2024/02/14 02:09:22;;;;;;;6.57;4.50;;;;;;;;;;6248176;23;20169;-80
2024/02/14 02:11:56;;;;;;;4.87;4.10;;;;;;;;;;6247642;23;20149;-79
2024/02/14 02:14:23;;;;;;;8.00;4.30;;;;;;;;;;6247583;23;20153;-79
2024/02/14 02:16:50;;;;;;;7.40;4.17;;;;;;;;;;6247464;23;20239;-79
2024/02/14 02:19:21;;;;;;;4.73;4.20;;;;;;;;;;6220730;23;20220;-79
2024/02/14 02:21:48;;;;;;;4.87;4.37;;;;;;;;;;6247458;23;20161;-79
2024/02/14 02:24:15;;;;;;;6.20;4.13;;;;;;;;;;6246003;23;20165;-79
2024/02/14 02:26:44;;;;;;;4.47;3.43;;;;;;;;;;6219648;23;20287;-79
2024/02/14 02:29:11;;;;;;;4.40;3.97;;;;;;;;;;6247402;23;20240;-80
2024/02/14 02:31:41;;;;;;;5.33;4.10;;;;;;;;;;6221551;23;20149;-80
2024/02/14 02:34:10;;;;;;;5.03;4.37;;;;;;;;;;6220433;23;20176;-79
2024/02/14 02:36:39;;;;;;;5.07;4.23;;;;;;;;;;6247290;23;20161;-79
2024/02/14 02:39:06;;;;;;;6.53;4.40;;;;;;;;;;6220502;23;20171;-79
2024/02/14 02:41:33;;;;;;;6.47;4.40;;;;;;;;;;6247234;23;20691;-80
2024/02/14 02:44:01;;;;;;;4.70;4.20;;;;;;;;;;6247431;23;20161;-79
2024/02/14 02:46:29;;;;;;;7.83;4.17;;;;;;;;;;6247165;23;20185;-79
2024/02/14 02:48:57;;;;;;;4.73;4.23;;;;;;;;;;6247246;23;20677;-80
2024/02/14 02:51:24;;;;;;;7.23;4.60;;;;;;;;;;6246938;23;20172;-79
2024/02/14 02:53:53;;;;;;;5.00;4.47;;;;;;;;;;6246689;23;20670;-79
2024/02/14 02:56:21;;;;;;;6.10;4.53;;;;;;;;;;6220265;23;20173;-80
2024/02/14 02:58:50;;;;;;;8.13;5.03;;;;;;;;;;6247012;23;20161;-79
2024/02/14 03:01:19;;;;;;;5.27;4.63;;;;;;;;;;6246502;23;20279;-79
2024/02/14 03:03:46;;;;;;;6.13;4.70;;;;;;;;;;6220532;23;20171;-80
2024/02/14 03:06:20;;;;;;;6.40;4.80;;;;;;;;;;6247041;23;20235;-80
2024/02/14 03:08:55;;;;;;;6.97;4.73;;;;;;;;;;6246916;23;20196;-79
2024/02/14 03:11:24;;;;;;;5.97;5.00;;;;;;;;;;6221000;23;20145;-80
2024/02/14 03:13:51;;;;;;;7.03;5.00;;;;;;;;;;6247028;23;20157;-79
2024/02/14 03:16:18;;;;;;;7.20;5.10;;;;;;;;;;6246824;23;20168;-79
2024/02/14 03:18:46;;;;;;;6.63;5.07;;;;;;;;;;6246895;23;20168;-79
2024/02/14 03:21:13;;;;;;;5.73;4.77;;;;;;;;;;6220384;23;20161;-80
2024/02/14 03:23:39;;;;;;;7.10;5.00;;;;;;;;;;6246773;23;20607;-79
2024/02/14 03:26:07;;;;;;;6.13;5.10;;;;;;;;;;6220197;23;20193;-80
2024/02/14 03:28:39;;;;;;;5.80;4.87;;;;;;;;;;6221274;23;20224;-79
2024/02/14 03:31:06;;;;;;;8.00;4.80;;;;;;;;;;6246733;23;20165;-79
2024/02/14 03:33:32;;;;;;;4.70;4.30;;;;;;;;;;6219956;23;20169;-79
2024/02/14 03:36:00;;;;;;;7.17;5.10;;;;;;;;;;6247090;23;20243;-79
2024/02/14 03:38:31;;;;;;;7.87;5.10;;;;;;;;;;6246819;23;20148;-79
2024/02/14 03:40:58;;;;;;;5.60;4.80;;;;;;;;;;6246790;23;20157;-79
2024/02/14 03:43:25;;;;;;;6.23;5.10;;;;;;;;;;6246777;23;20173;-79
2024/02/14 03:45:51;;;;;;;5.50;5.00;;;;;;;;;;6246478;23;20177;-79
2024/02/14 03:48:28;;;;;;;7.10;5.63;;;;;;;;;;6246487;23;20165;-79
2024/02/14 03:50:57;;;;;;;5.73;5.13;;;;;;;;;;6246746;23;20153;-79
2024/02/14 03:53:24;;;;;;;6.33;5.30;;;;;;;;;;6246463;23;20337;-80
2024/02/14 03:55:53;;;;;;;6.60;5.20;;;;;;;;;;6246509;23;20272;-79
2024/02/14 03:58:22;;;;;;;5.93;5.30;;;;;;;;;;6246667;23;20157;-78
2024/02/14 04:00:52;;;;;;;6.97;5.60;;;;;;;;;;6246454;23;20232;-79
2024/02/14 04:03:19;;;;;;;6.63;5.50;;;;;;;;;;6219096;23;20239;-79
2024/02/14 04:06:06;;;;;;;10.17;6.17;;;;;;;;;;6220108;23;20227;-79
2024/02/14 04:08:33;;;;;;;6.23;5.07;;;;;;;;;;6217869;23;20212;-79
2024/02/14 04:11:02;;;;;;;7.40;5.13;;;;;;;;;;6246554;23;20239;-79
2024/02/14 04:13:31;;;;;;;6.57;5.40;;;;;;;;;;6246304;23;20153;-80
2024/02/14 04:16:00;;;;;;;6.73;5.43;;;;;;;;;;6219708;23;20168;-79
2024/02/14 04:18:27;;;;;;;5.63;5.13;;;;;;;;;;6246385;23;20166;-79
2024/02/14 04:20:54;;;;;;;5.90;5.30;;;;;;;;;;6246373;23;20161;-79
2024/02/14 04:23:24;;;;;;;5.13;4.63;;;;;;;;;;6246273;23;20188;-79
2024/02/14 04:25:52;;;;;;;7.57;5.73;;;;;;;;;;6219934;23;20263;-80
2024/02/14 04:28:19;;;;;;;7.60;5.23;;;;;;;;;;6246708;23;20215;-79
2024/02/14 04:30:55;;;;;;;7.47;5.40;;;;;;;;;;6246144;23;20163;-80
2024/02/14 04:33:24;;;;;;;6.30;4.90;;;;;;;;;;6246210;23;20153;-79
2024/02/14 04:35:52;;;;;;;6.57;5.27;;;;;;;;;;6246132;23;20172;-78
2024/02/14 04:38:21;;;;;;;9.03;5.27;;;;;;;;;;6246135;23;20160;-79
2024/02/14 04:40:52;;;;;;;7.40;5.17;;;;;;;;;;6246063;23;20196;-79
2024/02/14 04:43:19;;;;;;;9.77;5.30;;;;;;;;;;6246138;23;20161;-79
2024/02/14 04:45:47;;;;;;;6.77;5.30;;;;;;;;;;6219684;23;20168;-79
2024/02/14 04:48:17;;;;;;;5.67;5.07;;;;;;;;;;6246168;23;20145;-79
2024/02/14 04:50:44;;;;;;;7.37;5.20;;;;;;;;;;6246082;23;20168;-80
2024/02/14 04:53:11;;;;;;;5.37;4.67;;;;;;;;;;6246338;23;20161;-79
2024/02/14 04:55:40;;;;;;;5.67;4.83;;;;;;;;;;6246173;23;20161;-80
2024/02/14 04:58:06;;;;;;;8.13;5.27;;;;;;;;;;6219805;23;20165;-79
2024/02/14 05:00:36;;;;;;;5.53;4.60;;;;;;;;;;6246209;23;20157;-80
2024/02/14 05:03:03;;;;;;;5.90;4.53;;;;;;;;;;6219549;23;20262;-79
2024/02/14 05:05:33;;;;;;;5.67;4.70;;;;;;;;;;6245995;23;20179;-80
2024/02/14 05:08:00;;;;;;;7.27;4.93;;;;;;;;;;6246057;23;20188;-80
2024/02/14 05:10:33;;;;;;;5.83;5.23;;;;;;;;;;6219283;23;20176;-79
2024/02/14 05:13:02;;;;;;;7.03;5.00;;;;;;;;;;6219358;23;20195;-79
2024/02/14 05:15:29;;;;;;;6.10;5.07;;;;;;;;;;6245580;23;20184;-79
2024/02/14 05:17:56;;;;;;;5.67;5.03;;;;;;;;;;6245810;23;20623;-80
2024/02/14 05:20:32;;;;;;;6.33;5.47;;;;;;;;;;6219289;23;20169;-79
2024/02/14 05:23:17;;;;;;;6.47;4.93;;;;;;;;;;6246495;23;20167;-80
2024/02/14 05:25:50;;;;;;;5.13;4.53;;;;;;;;;;6219310;23;20169;-79
2024/02/14 05:28:22;;;;;;;6.07;4.63;;;;;;;;;;6246276;23;20173;-80
2024/02/14 05:30:49;;;;;;;6.60;4.30;;;;;;;;;;6246601;23;20244;-79
2024/02/14 05:33:21;;;;;;;5.73;4.23;;;;;;;;;;6245931;23;20167;-80
2024/02/14 05:35:50;;;;;;;6.73;4.07;;;;;;;;;;6246229;23;20152;-80
2024/02/14 05:38:20;;;;;;;5.80;4.50;;;;;;;;;;6246252;23;20161;-79
2024/02/14 05:40:50;;;;;;;7.67;4.33;;;;;;;;;;6246428;23;20153;-79
2024/02/14 05:43:20;;;;;;;9.17;4.40;;;;;;;;;;6246163;23;20165;-80
2024/02/14 05:45:47;;;;;;;4.60;4.00;;;;;;;;;;6246036;23;20193;-80
2024/02/14 05:48:16;;;;;;;5.17;4.30;;;;;;;;;;6246532;23;20158;-79
2024/02/14 05:50:43;;;;;;;6.70;4.00;;;;;;;;;;6219549;23;20248;-79
2024/02/14 05:53:13;;;;;;;5.10;4.10;;;;;;;;;;6246553;23;20181;-80
2024/02/14 05:55:44;;;;;;;5.77;4.23;;;;;;;;;;6246489;23;20149;-80
2024/02/14 05:58:12;;;;;;;7.80;4.53;;;;;;;;;;6246253;23;20168;-80
2024/02/14 06:00:41;;;;;;;6.43;4.17;;;;;;;;;;6245776;23;20165;-79
2024/02/14 06:03:11;;;;;;;6.40;4.00;;;;;;;;;;6218862;23;20542;-80
2024/02/14 06:05:38;;;;;;;8.30;4.37;;;;;;;;;;6245993;23;20164;-79
2024/02/14 06:08:05;;;;;;;6.73;4.00;;;;;;;;;;6245663;23;20224;-80
2024/02/14 06:10:34;;;;;;;5.57;4.20;;;;;;;;;;6245888;23;20173;-80
2024/02/14 06:13:01;;;;;;;4.60;4.20;;;;;;;;;;6219329;23;20177;-79
2024/02/14 06:15:31;;;;;;;5.63;3.90;;;;;;;;;;6245757;23;20184;-79
2024/02/14 06:18:04;;;;;;;5.63;3.93;;;;;;;;;;6246086;23;20150;-80
2024/02/14 06:20:32;;;;;;;6.13;4.10;;;;;;;;;;6245851;23;20235;-80
2024/02/14 06:22:59;;;;;;;8.83;4.10;;;;;;;;;;6219013;23;20169;-80
2024/02/14 06:25:32;;;;;;;6.30;3.70;;;;;;;;;;6245883;23;20156;-80
2024/02/14 06:28:05;;;;;;;3.60;3.30;;;;;;;;;;6247233;23;20207;-80
2024/02/14 06:30:33;;;;;;;4.23;3.53;;;;;;;;;;6247588;23;20157;-79
2024/02/14 06:33:02;;;;;;;4.97;3.77;;;;;;;;;;6247364;23;20189;-80
2024/02/14 06:35:32;;;;;;;3.73;3.43;;;;;;;;;;6222114;23;20200;-79
2024/02/14 06:38:01;;;;;;;4.97;3.53;;;;;;;;;;6221592;23;20157;-79
2024/02/14 06:40:33;;;;;;;4.60;3.60;;;;;;;;;;6247613;23;20161;-80
2024/02/14 06:42:59;;;;;;;4.73;3.50;;;;;;;;;;6247470;23;20215;-80
2024/02/14 06:45:27;;;;;;;4.30;3.33;;;;;;;;;;6247453;23;20161;-80
2024/02/14 06:47:55;;;;;;;4.97;3.70;;;;;;;;;;6247460;23;20185;-79
2024/02/14 06:50:29;;;;;;;6.77;3.50;;;;;;;;;;6220860;23;20195;-79
2024/02/14 06:52:59;;;;;;;5.73;3.43;;;;;;;;;;6247620;23;20161;-80
2024/02/14 06:55:26;;;;;;;4.67;3.80;;;;;;;;;;6221052;23;20145;-80
2024/02/14 06:57:56;;;;;;;5.27;3.50;;;;;;;;;;6247182;23;20171;-80
2024/02/14 07:00:30;;;;;;;5.20;3.97;;;;;;;;;;6221221;23;20168;-79
2024/02/14 07:02:57;;;;;;;4.53;3.57;;;;;;;;;;6247258;22;20236;-79
2024/02/14 07:05:24;;;;;;;5.00;3.73;;;;;;;;;;6247204;23;20199;-79
2024/02/14 07:07:53;;;;;;;3.33;3.00;;;;;;;;;;6247290;23;20189;-79
2024/02/14 07:10:22;;;;;;;4.10;2.70;;;;;;;;;;6246852;23;20167;-80
2024/02/14 07:12:52;;;;;;;4.13;2.83;;;;;;;;;;6221521;23;20203;-80
2024/02/14 07:15:20;;;;;;;3.47;2.27;;;;;;;;;;6247878;23;20473;-80
2024/02/14 07:17:47;;;;;;;4.43;1.93;;;;;;;;;;6220664;23;20248;-79
2024/02/14 07:20:19;;;;;;;3.00;2.13;;;;;;;;;;6247512;23;20165;-79
2024/02/14 07:22:56;;;;;;;2.37;1.83;;;;;;;;;;6247757;23;20152;-80
2024/02/14 07:25:27;;;;;;;3.00;1.67;;;;;;;;;;6221685;23;20223;-80
2024/02/14 07:27:54;;;;;;;3.97;2.00;;;;;;;;;;6247477;23;20234;-79
2024/02/14 07:30:21;;;;;;;3.50;1.90;;;;;;;;;;6247517;23;20229;-79
2024/02/14 07:32:52;;;;;;;3.50;2.10;;;;;;;;;;6247622;23;20165;-80
2024/02/14 07:35:19;;;;;;;3.00;1.93;;;;;;;;;;6247462;23;20168;-79
2024/02/14 07:37:48;;;;;;;3.30;2.20;;;;;;;;;;6247290;23;20662;-80
2024/02/14 07:40:20;;;;;;;4.60;2.27;;;;;;;;;;6246786;23;20165;-79
2024/02/14 07:42:47;;;;;;;7.83;4.00;;;;;;;;;;6247356;23;20187;-79
2024/02/14 07:45:20;;;;;;;8.43;4.33;;;;;;;;;;6247449;23;20196;-80
2024/02/14 07:47:48;;;;;;;7.80;3.43;;;;;;;;;;6247460;23;20232;-79
2024/02/14 07:50:16;;;;;;;2.60;2.20;;;;;;;;;;6196393;23;20618;-77
2024/02/14 07:52:46;;;;;;;3.90;2.37;;;;;;;;;;6246752;23;20161;-80
2024/02/14 07:55:16;;;;;;;3.00;2.00;;;;;;;;;;6247504;23;20149;-79
2024/02/14 07:57:50;;;;;;;2.90;1.80;;;;;;;;;;6220895;23;20165;-79
2024/02/14 08:00:22;;;;;;;4.53;2.30;;;;;;;;;;6247196;23;20153;-79
2024/02/14 08:02:52;;;;;;;3.97;2.37;;;;;;;;;;6220274;23;20184;-77
2024/02/14 08:05:19;;;;;;;3.33;2.10;;;;;;;;;;6246723;23;20187;-77
2024/02/14 08:07:48;;;;;;;2.30;1.97;;;;;;;;;;6246354;23;20200;-77
2024/02/14 08:10:15;;;;;;;3.17;2.03;;;;;;;;;;6246533;23;20527;-78
2024/02/14 08:12:42;;;;;;;2.83;2.20;;;;;;;;;;6246462;23;20169;-78
2024/02/14 08:15:14;;;;;;;4.37;3.13;;;;;;;;;;6246057;23;20212;-78
2024/02/14 08:17:43;;;;;;;2.60;2.10;;;;;;;;;;6246302;23;20231;-78
2024/02/14 08:20:15;;;;;;;3.27;2.07;;;;;;;;;;6246480;23;20657;-78
2024/02/14 08:22:42;;;;;;;3.47;1.73;;;;;;;;;;6246154;23;20236;-78
2024/02/14 08:25:12;;;;;;;3.07;1.90;;;;;;;;;;6246007;23;20161;-77
2024/02/14 08:27:39;;;;;;;8.27;2.10;;;;;;;;;;6245964;23;20215;-77
2024/02/14 08:30:08;;;;;;;2.53;1.87;;;;;;;;;;6245994;23;20166;-78
2024/02/14 08:32:37;;;;;;;6.23;2.20;;;;;;;;;;6246244;23;20168;-77
2024/02/14 08:35:04;;;;;;;3.90;2.33;;;;;;;;;;6246513;23;20161;-79
2024/02/14 08:37:31;;;;;;;3.60;2.30;;;;;;;;;;6246318;23;20161;-78
2024/02/14 08:40:00;;;;;;;4.93;2.07;;;;;;;;;;6218839;23;20176;-79
2024/02/14 08:42:26;;;;;;;3.77;2.00;;;;;;;;;;6245746;23;20207;-78
2024/02/14 08:44:55;;;;;;;3.20;1.80;;;;;;;;;;6245739;23;20168;-77
2024/02/14 08:47:26;;;;;;;4.13;1.90;;;;;;;;;;6219080;23;20651;-77
2024/02/14 08:49:55;;;;;;;2.17;1.77;;;;;;;;;;6219121;23;20172;-78
2024/02/14 08:52:22;;;;;;;4.67;2.27;;;;;;;;;;6245871;23;20211;-78
2024/02/14 08:54:48;;;;;;;2.73;1.60;;;;;;;;;;6246509;23;20161;-78
2024/02/14 08:57:19;;;;;;;4.00;2.00;;;;;;;;;;6218954;23;20547;-78
2024/02/14 08:59:49;;;;;;;4.50;2.30;;;;;;;;;;6246217;23;20157;-79
2024/02/14 09:02:16;;;;;;;4.13;2.23;;;;;;;;;;6218767;23;20205;-79
2024/02/14 09:05:05;;;;;;;3.50;1.90;;;;;;;;;;6246144;23;20227;-80
2024/02/14 09:07:36;;;;;;;2.40;1.83;;;;;;;;;;6246307;23;20207;-79
2024/02/14 09:10:06;;;;;;;2.37;1.97;;;;;;;;;;6195482;23;20164;-79
2024/02/14 09:12:33;;;;;;;3.53;1.80;;;;;;;;;;6219821;23;20168;-80
2024/02/14 09:15:00;;;;;;;2.93;2.27;;;;;;;;;;6246393;23;20165;-80
2024/02/14 09:17:27;;;;;;;3.80;1.93;;;;;;;;;;6246525;23;20169;-79
2024/02/14 09:19:54;;;;;;;2.90;1.60;;;;;;;;;;6246744;23;20249;-80
2024/02/14 09:22:21;;;;;;;3.63;1.80;;;;;;;;;;6246344;23;20161;-80
2024/02/14 09:24:48;;;;;;;3.80;1.80;;;;;;;;;;6246253;23;20165;-80
2024/02/14 09:27:18;;;;;;;2.70;1.63;;;;;;;;;;6246716;23;20178;-80
2024/02/14 09:29:45;;;;;;;2.53;1.43;;;;;;;;;;6246425;23;20240;-79
2024/02/14 09:32:12;;;;;;;3.00;1.63;;;;;;;;;;6246406;23;20164;-80
2024/02/14 09:34:39;;;;;;;2.93;1.67;;;;;;;;;;6246303;23;20224;-79
2024/02/14 09:37:06;;;;;;;3.67;2.20;;;;;;;;;;6246437;23;20165;-79
2024/02/14 09:39:36;;;;;;;4.67;2.10;;;;;;;;;;6246426;23;20161;-80
2024/02/14 09:42:07;;;;;;;4.50;1.90;;;;;;;;;;6246461;23;20190;-80
2024/02/14 09:44:35;;;;;;;5.63;3.00;;;;;;;;;;6220065;23;20164;-80
2024/02/14 09:47:04;;;;;;;5.50;3.87;;;;;;;;;;6246317;23;20157;-80
2024/02/14 09:49:34;;;;;;;5.63;3.57;;;;;;;;;;6246723;23;20149;-80
2024/02/14 09:52:06;;;;;;;2.63;2.20;;;;;;;;;;6247408;23;20245;-80
2024/02/14 09:54:38;;;;;;;5.13;2.50;;;;;;;;;;6220113;23;20161;-80
2024/02/14 09:57:07;;;;;;;3.53;2.63;;;;;;;;;;6219699;23;20195;-80
2024/02/14 09:59:38;;;;;;;3.63;2.03;;;;;;;;;;6246197;23;20662;-80
2024/02/14 10:02:10;;;;;;;4.67;2.40;;;;;;;;;;6246978;22;20223;-80
2024/02/14 10:04:37;;;;;;;5.43;2.63;;;;;;;;;;6248460;23;20188;-80
2024/02/14 10:07:08;;;;;;;2.47;2.10;;;;;;;;;;6221686;23;20246;-80
2024/02/14 10:09:43;;;;;;;3.73;2.40;;;;;;;;;;6248064;23;20164;-80
2024/02/14 10:12:12;;;;;;;4.00;2.37;;;;;;;;;;6221349;23;20165;-80
2024/02/14 10:14:40;;;;;;;4.53;2.40;;;;;;;;;;6221311;23;20196;-80
2024/02/14 10:17:09;;;;;;;3.23;2.47;;;;;;;;;;6248216;23;20169;-79
2024/02/14 10:19:37;;;;;;;3.60;2.30;;;;;;;;;;6247927;23;20162;-80
2024/02/14 10:22:09;;;;;;;3.73;2.27;;;;;;;;;;6222063;23;20219;-80
2024/02/14 10:24:39;;;;;;;5.53;2.63;;;;;;;;;;6248075;23;20141;-79
2024/02/14 10:27:08;;;;;;;3.77;2.23;;;;;;;;;;6221564;23;20175;-80
2024/02/14 10:29:46;;;;;;;3.70;2.27;;;;;;;;;;6248149;23;20265;-80
2024/02/14 10:32:16;;;;;;;4.50;2.40;;;;;;;;;;6219502;23;20157;-79
2024/02/14 10:34:47;;;;;;;3.73;1.87;;;;;;;;;;6245972;23;20187;-79
2024/02/14 10:37:18;;;;;;;2.90;2.20;;;;;;;;;;6220674;23;20243;-80
2024/02/14 10:39:48;;;;;;;2.57;1.90;;;;;;;;;;6221972;23;20203;-80
2024/02/14 10:42:19;;;;;;;2.20;1.70;;;;;;;;;;6247887;23;20612;-80
2024/02/14 10:44:49;;;;;;;3.03;1.90;;;;;;;;;;6247222;23;20176;-80
2024/02/14 10:47:19;;;;;;;3.67;1.70;;;;;;;;;;6246816;23;20256;-80
2024/02/14 10:49:48;;;;;;;2.07;1.50;;;;;;;;;;6247462;23;20149;-80
2024/02/14 10:52:16;;;;;;;3.27;1.90;;;;;;;;;;6221867;23;20165;-80
2024/02/14 10:54:50;;;;;;;3.00;1.43;;;;;;;;;;6247798;23;20240;-80
2024/02/14 10:57:17;;;;;;;2.10;1.33;;;;;;;;;;6248176;23;20145;-80
2024/02/14 10:59:45;;;;;;;1.77;1.57;;;;;;;;;;6247813;23;20180;-80
2024/02/14 11:02:13;;;;;;;3.80;1.83;;;;;;;;;;6221104;23;20204;-79
2024/02/14 11:04:40;;;;;;;3.60;1.80;;;;;;;;;;6221648;23;20162;-80
2024/02/14 11:07:15;;;;;;;2.33;1.60;;;;;;;;;;6221039;23;20200;-79
2024/02/14 11:09:41;;;;;;;3.53;2.20;;;;;;;;;;6248249;23;20149;-80
2024/02/14 11:12:14;;;;;;;2.50;2.30;;;;;;;;;;6221188;23;20196;-80
2024/02/14 11:14:43;;;;;;;4.63;3.00;;;;;;;;;;6247810;23;20165;-81
2024/02/14 11:17:18;;;;;;;4.03;2.60;;;;;;;;;;6222484;23;20141;-80
2024/02/14 11:19:47;;;;;;;4.03;2.80;;;;;;;;;;6221332;23;20553;-80
2024/02/14 11:22:21;;;;;;;4.47;2.60;;;;;;;;;;6247844;23;20168;-80
2024/02/14 11:24:48;;;;;;;2.03;1.60;;;;;;;;;;6221214;23;20174;-80
2024/02/14 11:27:23;;;;;;;2.73;1.53;;;;;;;;;;6220810;23;20519;-80
2024/02/14 11:30:00;;;;;;;3.80;1.80;;;;;;;;;;6247597;23;20204;-81
2024/02/14 11:32:30;;;;;;;2.27;1.80;;;;;;;;;;6247805;23;20171;-80
2024/02/14 11:34:59;;;;;;;3.23;2.00;;;;;;;;;;6248251;23;20146;-80
2024/02/14 11:37:32;;;;;;;3.67;2.00;;;;;;;;;;6248813;23;20164;-80
2024/02/14 11:40:00;;;;;;;2.20;1.90;;;;;;;;;;6249283;23;20233;-80
2024/02/14 11:42:48;;;;;;;3.13;1.90;;;;;;;;;;6221758;23;20175;-80
2024/02/14 11:45:15;;;;;;;2.70;1.80;;;;;;;;;;6248085;23;20170;-80
2024/02/14 11:47:42;;;;;;;6.10;2.00;;;;;;;;;;6222390;23;20198;-80
2024/02/14 11:50:10;;;;;;;4.17;3.23;;;;;;;;;;6222886;23;20170;-80
2024/02/14 11:52:37;;;;;;;3.83;2.00;;;;;;;;;;6249556;23;20163;-80
2024/02/14 11:55:06;;;;;;;2.73;1.73;;;;;;;;;;6249989;23;20172;-80
2024/02/14 11:57:40;;;;;;;2.27;1.50;;;;;;;;;;6222811;23;20166;-80
2024/02/14 12:00:14;;;;;;;3.17;1.70;;;;;;;;;;6249917;23;20152;-80
2024/02/14 12:02:59;;;;;;;2.83;1.53;;;;;;;;;;6227852;23;20193;-80
2024/02/14 12:05:30;;;;;;;1.87;1.50;;;;;;;;;;6250740;23;20157;-80
2024/02/14 12:07:57;;;;;;;3.00;1.50;;;;;;;;;;6223370;23;20181;-80
2024/02/14 12:10:25;;;;;;;2.27;1.20;;;;;;;;;;6224884;23;20161;-80
2024/02/14 12:12:53;;;;;;;2.77;1.33;;;;;;;;;;6251062;23;20168;-80
2024/02/14 12:15:26;;;;;;;4.20;1.63;;;;;;;;;;6250671;23;20165;-80
2024/02/14 12:17:56;;;;;;;2.73;1.40;;;;;;;;;;6250926;23;20153;-80
2024/02/14 12:20:26;;;;;;;2.90;1.50;;;;;;;;;;6251557;23;20209;-80
2024/02/14 12:23:00;;;;;;;2.70;1.90;;;;;;;;;;6250975;23;20177;-80
2024/02/14 12:25:34;;;;;;;2.00;1.70;;;;;;;;;;6224187;23;20164;-80
2024/02/14 12:28:06;;;;;;;4.63;2.30;;;;;;;;;;6225429;23;20165;-80
2024/02/14 12:30:43;;;;;;;2.97;1.40;;;;;;;;;;6251052;23;20204;-80
2024/02/14 12:33:18;;;;;;;2.20;1.10;;;;;;;;;;6226023;23;20152;-80
2024/02/14 12:35:48;;;;;;;2.73;1.40;;;;;;;;;;6224056;23;20226;-80
2024/02/14 12:38:22;;;;;;;2.47;1.27;;;;;;;;;;6249874;23;20168;-80
2024/02/14 12:40:54;;;;;;;3.57;1.80;;;;;;;;;;6223979;23;20153;-80
2024/02/14 12:43:23;;;;;;;2.40;1.40;;;;;;;;;;6250350;23;20172;-80
2024/02/14 12:45:55;;;;;;;2.37;1.40;;;;;;;;;;6250521;23;20171;-79
2024/02/14 12:48:23;;;;;;;2.97;1.30;;;;;;;;;;6223824;23;20189;-80
2024/02/14 12:50:53;;;;;;;3.10;1.40;;;;;;;;;;6251868;23;20157;-79
2024/02/14 12:53:20;;;;;;;2.93;1.20;;;;;;;;;;6250502;23;20161;-79
2024/02/14 12:55:47;;;;;;;2.57;1.40;;;;;;;;;;6250684;23;20223;-80
2024/02/14 12:58:16;;;;;;;2.90;1.47;;;;;;;;;;6224609;23;20165;-80
2024/02/14 13:00:47;;;;;;;1.93;1.13;;;;;;;;;;6200073;23;20577;-80
2024/02/14 13:03:15;;;;;;;1.90;1.17;;;;;;;;;;6249761;22;20192;-80
2024/02/14 13:05:47;;;;;;;1.37;1.10;;;;;;;;;;6250567;23;20239;-80
2024/02/14 13:08:18;;;;;;;1.97;1.23;;;;;;;;;;6250119;23;20259;-80
2024/02/14 13:10:50;;;;;;;1.77;1.03;;;;;;;;;;6247878;23;20217;-80
2024/02/14 13:13:16;;;;;;;1.43;1.27;;;;;;;;;;6249703;23;20170;-80
2024/02/14 13:15:44;;;;;;;1.87;1.30;;;;;;;;;;6249740;23;20175;-80
2024/02/14 13:18:11;;;;;;;3.67;1.33;;;;;;;;;;6249411;23;20215;-80
2024/02/14 13:20:41;;;;;;;1.60;1.27;;;;;;;;;;6250006;23;20167;-80
2024/02/14 13:23:09;;;;;;;3.63;1.40;;;;;;;;;;6223068;23;20171;-80
2024/02/14 13:25:36;;;;;;;2.67;1.50;;;;;;;;;;6249038;23;20162;-80
2024/02/14 13:28:04;;;;;;;4.17;1.30;;;;;;;;;;6222089;23;20177;-80
2024/02/14 13:30:46;;;;;;;2.70;1.30;;;;;;;;;;6249103;23;20195;-80
2024/02/14 13:33:18;;;;;;;20.30;14.47;;;;;;;;;;6249707;23;20214;-80
2024/02/14 13:35:48;;;;;;;17.67;13.97;;;;;;;;;;6248701;23;20199;-79
2024/02/14 13:38:17;;;;;;;4.63;3.97;;;;;;;;;;6224067;23;20241;-80
2024/02/14 13:40:46;;;;;;;3.87;1.77;;;;;;;;;;6250952;23;20577;-80
2024/02/14 13:43:13;;;;;;;3.50;1.93;;;;;;;;;;6224479;23;20171;-79
2024/02/14 13:45:45;;;;;;;1.70;1.00;;;;;;;;;;6251063;23;20156;-80
2024/02/14 13:48:11;;;;;;;2.33;1.00;;;;;;;;;;6250738;23;20187;-79
2024/02/14 13:50:42;;;;;;;2.30;1.30;;;;;;;;;;6224399;23;20170;-80
2024/02/14 13:53:13;;;;;;;2.50;0.80;;;;;;;;;;6225488;23;20585;-80
2024/02/14 13:55:41;;;;;;;0.70;0.70;;;;;;;;;;6249975;23;20159;-80
2024/02/14 13:58:13;;;;;;;0.70;0.50;;;;;;;;;;6250065;23;20173;-80
2024/02/14 14:00:43;;;;;;;1.83;0.70;;;;;;;;;;6223138;23;20170;-80
2024/02/14 14:03:13;;;;;;;1.47;0.80;;;;;;;;;;6250347;22;20190;-80
2024/02/14 14:05:49;;;;;;;1.40;0.70;;;;;;;;;;6249505;23;20226;-80
2024/02/14 14:08:18;;;;;;;1.03;0.60;;;;;;;;;;6223066;23;20242;-80
2024/02/14 14:10:45;;;;;;;1.40;0.70;;;;;;;;;;6248726;23;20633;-80
2024/02/14 14:13:13;;;;;;;1.40;0.80;;;;;;;;;;6222658;23;20177;-79
2024/02/14 14:15:40;;;;;;;1.30;0.60;;;;;;;;;;6248609;23;20185;-80
2024/02/14 14:18:11;;;;;;;2.77;0.60;;;;;;;;;;6249041;23;20169;-80
2024/02/14 14:20:41;;;;;;;1.17;0.53;;;;;;;;;;6222327;23;20197;-80
2024/02/14 14:23:09;;;;;;;1.27;0.60;;;;;;;;;;6249211;23;20213;-80
2024/02/14 14:25:37;;;;;;;1.60;0.80;;;;;;;;;;6249103;23;20254;-79
2024/02/14 14:28:06;;;;;;;2.03;0.70;;;;;;;;;;6249078;23;20159;-80
2024/02/14 14:30:38;;;;;;;0.50;0.50;;;;;;;;;;6222132;23;20193;-80
2024/02/14 14:33:11;;;;;;;1.13;0.80;;;;;;;;;;6248469;23;20167;-80
2024/02/14 14:35:40;;;;;;;0.97;0.70;;;;;;;;;;6249028;23;20149;-80
2024/02/14 14:38:12;;;;;;;0.80;0.50;;;;;;;;;;6248901;23;20169;-80
2024/02/14 14:40:41;;;;;;;1.57;0.60;;;;;;;;;;6248580;23;20185;-80
2024/02/14 14:43:12;;;;;;;1.43;0.97;;;;;;;;;;6248690;23;20246;-80
2024/02/14 14:45:42;;;;;;;1.00;0.67;;;;;;;;;;6223364;23;20606;-80
2024/02/14 14:48:09;;;;;;;2.27;0.90;;;;;;;;;;6221038;23;20178;-79
2024/02/14 14:50:39;;;;;;;2.23;0.70;;;;;;;;;;6248490;23;20171;-80
2024/02/14 14:53:06;;;;;;;2.20;0.77;;;;;;;;;;6249211;23;20165;-80
2024/02/14 14:55:52;;;;;;;1.47;0.80;;;;;;;;;;6248764;23;20163;-80